createdAt,value
2017-10-26T00:00:21.260Z,22.97
2017-10-26T00:02:47.837Z,23.00
2017-10-26T00:05:14.435Z,25.43
2017-10-26T00:07:41.017Z,29.90
2017-10-26T00:10:07.592Z,18.60
2017-10-26T00:12:34.190Z,21.97
2017-10-26T00:15:00.764Z,21.20
2017-10-26T00:17:27.433Z,19.00
2017-10-26T00:19:54.017Z,25.43
2017-10-26T00:22:20.597Z,22.00
2017-10-26T00:24:47.184Z,23.30
2017-10-26T00:27:13.760Z,20.30
2017-10-26T00:29:40.341Z,24.80
2017-10-26T00:32:06.937Z,19.23
2017-10-26T00:34:33.508Z,23.47
2017-10-26T00:37:00.092Z,22.80
2017-10-26T00:39:26.693Z,20.73
2017-10-26T00:41:53.269Z,25.60
2017-10-26T00:44:19.848Z,26.20
2017-10-26T00:46:46.437Z,31.43
2017-10-26T00:49:13.018Z,21.77
2017-10-26T00:51:39.609Z,22.20
2017-10-26T00:54:06.184Z,23.53
2017-10-26T00:56:32.778Z,26.93
2017-10-26T00:58:59.360Z,23.33
2017-10-26T01:01:25.933Z,25.27
2017-10-26T01:03:52.534Z,25.40
2017-10-26T01:06:19.938Z,28.37
2017-10-26T01:08:46.518Z,24.23
2017-10-26T01:11:13.103Z,23.47
2017-10-26T01:13:39.677Z,23.47
2017-10-26T01:16:06.274Z,25.57
2017-10-26T01:18:32.849Z,22.53
2017-10-26T01:20:59.424Z,23.77
2017-10-26T01:23:26.004Z,24.17
2017-10-26T01:25:52.585Z,24.20
2017-10-26T01:28:19.173Z,21.40
2017-10-26T01:30:45.745Z,24.97
2017-10-26T01:33:12.371Z,22.63
2017-10-26T01:35:38.959Z,23.57
2017-10-26T01:38:05.549Z,22.27
2017-10-26T01:40:32.149Z,23.93
2017-10-26T01:42:58.728Z,24.57
2017-10-26T01:45:25.317Z,22.23
2017-10-26T01:47:51.896Z,26.93
2017-10-26T01:50:18.553Z,27.80
2017-10-26T01:52:45.144Z,22.43
2017-10-26T01:55:11.729Z,23.63
2017-10-26T01:57:38.309Z,26.80
2017-10-26T02:00:04.892Z,28.73
2017-10-26T02:02:31.469Z,24.23
2017-10-26T02:04:58.059Z,26.00
2017-10-26T02:07:24.668Z,24.70
2017-10-26T02:09:51.260Z,24.33
2017-10-26T02:12:17.852Z,24.17
2017-10-26T02:14:44.457Z,25.90
2017-10-26T02:17:11.032Z,24.77
2017-10-26T02:19:37.613Z,22.70
2017-10-26T02:22:04.197Z,21.20
2017-10-26T02:24:30.831Z,21.97
2017-10-26T02:26:57.397Z,25.43
2017-10-26T02:29:29.816Z,21.13
2017-10-26T02:31:56.397Z,24.40
2017-10-26T02:34:23.004Z,23.10
2017-10-26T02:36:49.593Z,22.83
2017-10-26T02:39:16.177Z,24.90
2017-10-26T02:41:42.772Z,21.27
2017-10-26T02:44:09.349Z,26.67
2017-10-26T02:46:35.929Z,24.33
2017-10-26T02:49:02.505Z,24.23
2017-10-26T02:51:29.129Z,24.40
2017-10-26T02:53:55.747Z,27.17
2017-10-26T02:56:22.328Z,23.93
2017-10-26T02:58:48.906Z,24.47
2017-10-26T03:01:15.489Z,23.83
2017-10-26T03:03:42.076Z,26.90
2017-10-26T03:06:08.666Z,25.60
2017-10-26T03:08:35.247Z,24.50
2017-10-26T03:11:01.865Z,24.03
2017-10-26T03:13:28.492Z,24.03
2017-10-26T03:15:55.068Z,21.50
2017-10-26T03:18:21.655Z,23.67
2017-10-26T03:20:48.228Z,20.07
2017-10-26T03:23:14.810Z,27.07
2017-10-26T03:25:41.388Z,25.93
2017-10-26T03:28:07.980Z,24.90
2017-10-26T03:30:34.615Z,26.97
2017-10-26T03:33:01.197Z,22.67
2017-10-26T03:35:27.776Z,23.03
2017-10-26T03:37:54.361Z,18.27
2017-10-26T03:40:20.941Z,18.80
2017-10-26T03:42:47.537Z,19.00
2017-10-26T03:45:14.119Z,24.53
2017-10-26T03:47:40.705Z,21.83
2017-10-26T03:50:07.292Z,24.83
2017-10-26T03:52:33.868Z,20.53
2017-10-26T03:55:00.858Z,17.17
2017-10-26T03:57:27.420Z,16.57
2017-10-26T03:59:53.997Z,22.03
2017-10-26T04:02:20.580Z,20.97
2017-10-26T04:04:47.159Z,17.17
2017-10-26T04:07:13.768Z,20.80
2017-10-26T04:09:40.354Z,16.90
2017-10-26T04:12:06.937Z,24.70
2017-10-26T04:14:33.519Z,22.47
2017-10-26T04:17:00.109Z,19.17
2017-10-26T04:19:26.692Z,23.73
2017-10-26T04:21:53.289Z,27.47
2017-10-26T04:24:19.877Z,27.70
2017-10-26T04:26:46.486Z,18.87
2017-10-26T04:29:13.045Z,21.30
2017-10-26T04:31:39.639Z,17.97
2017-10-26T04:34:06.221Z,24.53
2017-10-26T04:36:32.800Z,22.60
2017-10-26T04:38:59.390Z,22.53
2017-10-26T04:41:25.973Z,21.03
2017-10-26T04:43:52.588Z,19.60
2017-10-26T04:46:19.168Z,18.93
2017-10-26T04:48:45.752Z,19.27
2017-10-26T04:51:12.336Z,22.37
2017-10-26T04:53:38.913Z,20.53
2017-10-26T04:56:05.508Z,24.27
2017-10-26T04:58:32.088Z,26.37
2017-10-26T05:00:58.698Z,19.57
2017-10-26T05:03:25.276Z,23.73
2017-10-26T05:05:51.857Z,19.20
2017-10-26T05:08:18.440Z,20.23
2017-10-26T05:10:45.037Z,21.07
2017-10-26T05:13:11.604Z,19.63
2017-10-26T05:15:38.192Z,20.87
2017-10-26T05:18:04.781Z,18.40
2017-10-26T05:20:31.349Z,21.60
2017-10-26T05:22:58.014Z,20.73
2017-10-26T05:25:24.588Z,18.73
2017-10-26T05:27:51.173Z,20.77
2017-10-26T05:30:17.763Z,17.93
2017-10-26T05:32:44.351Z,16.97
2017-10-26T05:35:10.924Z,22.20
2017-10-26T05:37:37.509Z,18.07
2017-10-26T05:40:04.120Z,17.90
2017-10-26T05:42:30.717Z,20.53
2017-10-26T05:44:57.300Z,17.93
2017-10-26T05:47:23.882Z,23.30
2017-10-26T05:49:50.460Z,17.70
2017-10-26T05:52:17.044Z,19.13
2017-10-26T05:54:43.633Z,15.07
2017-10-26T05:57:10.212Z,16.23
2017-10-26T05:59:36.788Z,18.80
2017-10-26T06:02:04.148Z,14.87
2017-10-26T06:04:30.725Z,18.10
2017-10-26T06:06:57.305Z,17.63
2017-10-26T06:09:23.897Z,15.80
2017-10-26T06:11:50.476Z,14.00
2017-10-26T06:14:17.056Z,13.90
2017-10-26T06:16:43.648Z,17.00
2017-10-26T06:19:16.028Z,20.03
2017-10-26T06:21:42.621Z,15.13
2017-10-26T06:24:09.232Z,21.17
2017-10-26T06:26:35.812Z,15.77
2017-10-26T06:29:02.396Z,16.90
2017-10-26T06:31:28.988Z,20.90
2017-10-26T06:33:55.569Z,17.30
2017-10-26T06:36:22.148Z,15.20
2017-10-26T06:38:48.737Z,15.40
2017-10-26T06:41:15.317Z,17.10
2017-10-26T06:43:41.896Z,17.43
2017-10-26T06:46:08.491Z,16.40
2017-10-26T06:48:35.077Z,18.20
2017-10-26T06:51:01.659Z,18.47
2017-10-26T06:53:28.274Z,15.30
2017-10-26T06:55:54.857Z,12.67
2017-10-26T06:58:21.441Z,16.10
2017-10-26T07:00:48.028Z,12.87
2017-10-26T07:03:14.608Z,14.30
2017-10-26T07:05:41.188Z,14.00
2017-10-26T07:08:07.780Z,12.40
2017-10-26T07:10:34.405Z,14.90
2017-10-26T07:13:00.974Z,13.73
2017-10-26T07:15:27.552Z,12.70
2017-10-26T07:17:54.176Z,10.83
2017-10-26T07:20:20.767Z,13.73
2017-10-26T07:22:47.332Z,10.17
2017-10-26T07:25:13.936Z,16.53
2017-10-26T07:27:46.578Z,12.30
2017-10-26T07:30:13.160Z,14.00
2017-10-26T07:32:39.769Z,11.03
2017-10-26T07:35:06.365Z,10.23
2017-10-26T07:37:32.936Z,10.57
2017-10-26T07:39:59.676Z,15.40
2017-10-26T07:42:26.253Z,11.20
2017-10-26T07:44:52.824Z,12.10
2017-10-26T07:47:19.400Z,17.73
2017-10-26T07:49:46.022Z,17.87
2017-10-26T07:52:12.624Z,10.60
2017-10-26T07:54:39.200Z,11.77
2017-10-26T07:57:05.837Z,9.23
2017-10-26T07:59:32.432Z,9.57
2017-10-26T08:01:59.015Z,10.10
2017-10-26T08:04:25.610Z,15.67
2017-10-26T08:06:52.176Z,10.13
2017-10-26T08:09:18.782Z,16.10
2017-10-26T08:11:45.352Z,11.30
2017-10-26T08:14:11.936Z,10.10
2017-10-26T08:16:38.513Z,11.33
2017-10-26T08:19:05.088Z,10.37
2017-10-26T08:21:31.665Z,8.50
2017-10-26T08:23:58.248Z,11.93
2017-10-26T08:26:24.821Z,12.70
2017-10-26T08:28:51.397Z,9.87
2017-10-26T08:31:17.980Z,12.33
2017-10-26T08:33:44.549Z,8.07
2017-10-26T08:36:11.124Z,8.47
2017-10-26T08:38:37.708Z,11.13
2017-10-26T08:41:04.284Z,8.40
2017-10-26T08:43:30.852Z,9.40
2017-10-26T08:45:57.453Z,13.77
2017-10-26T08:48:24.012Z,9.80
2017-10-26T08:50:50.581Z,7.87
2017-10-26T08:53:17.159Z,6.90
2017-10-26T08:55:43.733Z,8.00
2017-10-26T08:58:17.904Z,7.50
2017-10-26T09:00:44.472Z,7.10
2017-10-26T09:03:11.063Z,13.13
2017-10-26T09:05:37.693Z,6.40
2017-10-26T09:08:04.305Z,7.13
2017-10-26T09:10:30.888Z,5.30
2017-10-26T09:12:57.476Z,5.20
2017-10-26T09:15:24.061Z,4.67
2017-10-26T09:17:50.636Z,5.57
2017-10-26T09:20:17.205Z,6.73
2017-10-26T09:22:43.780Z,5.07
2017-10-26T09:25:10.385Z,4.73
2017-10-26T09:27:37.020Z,5.83
2017-10-26T09:30:03.616Z,5.43
2017-10-26T09:32:30.202Z,4.73
2017-10-26T09:34:56.764Z,6.20
2017-10-26T09:37:23.333Z,7.10
2017-10-26T09:39:49.906Z,4.40
2017-10-26T09:42:16.544Z,6.00
2017-10-26T09:44:43.197Z,9.60
2017-10-26T09:47:09.752Z,4.50
2017-10-26T09:49:36.336Z,5.90
2017-10-26T09:52:02.904Z,6.00
2017-10-26T09:54:29.473Z,4.63
2017-10-26T09:56:56.051Z,4.73
2017-10-26T09:59:29.297Z,4.80
2017-10-26T10:01:55.871Z,4.37
2017-10-26T10:04:22.445Z,7.30
2017-10-26T10:06:49.052Z,7.07
2017-10-26T10:09:16.675Z,5.57
2017-10-26T10:11:43.243Z,5.57
2017-10-26T10:14:09.879Z,15.70
2017-10-26T10:16:36.443Z,8.57
2017-10-26T10:19:03.017Z,4.10
2017-10-26T10:21:29.605Z,7.87
2017-10-26T10:23:56.184Z,4.43
2017-10-26T10:26:22.753Z,6.50
2017-10-26T10:28:49.324Z,5.80
2017-10-26T10:31:15.917Z,4.40
2017-10-26T10:33:42.486Z,7.30
2017-10-26T10:36:09.091Z,4.50
2017-10-26T10:38:35.675Z,5.03
2017-10-26T10:41:02.241Z,5.03
2017-10-26T10:43:28.820Z,4.93
2017-10-26T10:45:55.393Z,5.30
2017-10-26T10:48:21.976Z,5.37
2017-10-26T10:50:48.544Z,4.03
2017-10-26T10:53:15.132Z,6.67
2017-10-26T10:55:41.716Z,5.00
2017-10-26T10:58:08.288Z,9.07
2017-10-26T11:00:34.868Z,9.40
2017-10-26T11:03:01.437Z,13.93
2017-10-26T11:05:28.066Z,5.23
2017-10-26T11:07:54.632Z,6.77
2017-10-26T11:10:21.209Z,6.93
2017-10-26T11:12:47.787Z,7.83
2017-10-26T11:15:14.373Z,6.33
2017-10-26T11:17:40.948Z,4.40
2017-10-26T11:20:07.523Z,7.10
2017-10-26T11:22:34.236Z,7.28
2017-10-26T11:25:01.673Z,5.97
2017-10-26T11:27:28.222Z,6.30
2017-10-26T11:29:54.799Z,6.13
2017-10-26T11:32:21.375Z,4.93
2017-10-26T11:34:47.995Z,9.43
2017-10-26T11:37:14.570Z,5.90
2017-10-26T11:39:41.153Z,6.20
2017-10-26T11:42:07.729Z,5.73
2017-10-26T11:44:34.297Z,4.93
2017-10-26T11:47:00.877Z,5.73
2017-10-26T11:49:27.447Z,9.33
2017-10-26T11:51:54.026Z,5.10
2017-10-26T11:54:20.692Z,7.00
2017-10-26T11:56:47.256Z,7.47
2017-10-26T11:59:13.829Z,5.07
2017-10-26T12:01:40.472Z,5.00
2017-10-26T12:04:07.048Z,8.83
2017-10-26T12:06:33.626Z,6.00
2017-10-26T12:09:00.227Z,8.23
2017-10-26T12:11:26.800Z,5.00
2017-10-26T12:13:53.368Z,6.30
2017-10-26T12:16:19.953Z,5.07
2017-10-26T12:18:46.522Z,7.13
2017-10-26T12:21:13.088Z,8.87
2017-10-26T12:23:39.688Z,6.20
2017-10-26T12:26:06.274Z,4.33
2017-10-26T12:28:32.833Z,8.90
2017-10-26T12:30:59.415Z,12.67
2017-10-26T12:33:25.985Z,6.97
2017-10-26T12:35:52.571Z,4.97
2017-10-26T12:38:19.139Z,5.10
2017-10-26T12:40:45.712Z,10.87
2017-10-26T12:43:12.292Z,7.37
2017-10-26T12:45:38.863Z,7.10
2017-10-26T12:48:05.456Z,8.53
2017-10-26T12:50:32.024Z,8.70
2017-10-26T12:52:58.598Z,10.20
2017-10-26T12:55:25.173Z,4.93
2017-10-26T12:57:51.740Z,8.20
2017-10-26T13:00:18.324Z,8.57
2017-10-26T13:02:44.896Z,8.40
2017-10-26T13:05:11.492Z,6.43
2017-10-26T13:07:38.054Z,14.27
2017-10-26T13:10:04.622Z,5.83
2017-10-26T13:12:31.204Z,7.03
2017-10-26T13:14:57.773Z,5.60
2017-10-26T13:17:24.341Z,7.50
2017-10-26T13:19:50.993Z,7.77
2017-10-26T13:22:17.588Z,5.33
2017-10-26T13:24:44.159Z,7.73
2017-10-26T13:27:10.811Z,5.57
2017-10-26T13:29:37.366Z,7.60
2017-10-26T13:32:03.946Z,6.73
2017-10-26T13:34:30.531Z,6.93
2017-10-26T13:36:57.101Z,6.70
2017-10-26T13:39:23.676Z,8.97
2017-10-26T13:41:50.288Z,5.80
2017-10-26T13:44:16.844Z,8.70
2017-10-26T13:46:43.412Z,6.50
2017-10-26T13:49:09.992Z,6.17
2017-10-26T13:51:36.564Z,7.63
2017-10-26T13:54:03.137Z,10.13
2017-10-26T13:56:29.716Z,5.73
2017-10-26T13:58:56.325Z,7.47
2017-10-26T14:01:22.897Z,7.17
2017-10-26T14:03:49.468Z,7.90
2017-10-26T14:06:16.044Z,10.40
2017-10-26T14:08:42.624Z,10.20
2017-10-26T14:11:09.196Z,11.90
2017-10-26T14:13:35.800Z,7.53
2017-10-26T14:16:02.397Z,8.30
2017-10-26T14:18:28.953Z,6.70
2017-10-26T14:20:55.532Z,5.87
2017-10-26T14:23:22.104Z,11.43
2017-10-26T14:25:48.696Z,6.13
2017-10-26T14:28:15.270Z,6.67
2017-10-26T14:30:41.859Z,6.97
2017-10-26T14:33:09.449Z,7.13
2017-10-26T14:35:36.017Z,8.17
2017-10-26T14:38:02.600Z,9.40
2017-10-26T14:40:29.173Z,5.83
2017-10-26T14:42:55.753Z,6.67
2017-10-26T14:45:22.316Z,5.57
2017-10-26T14:47:48.892Z,7.10
2017-10-26T14:50:15.476Z,6.53
2017-10-26T14:52:42.049Z,6.30
2017-10-26T14:55:08.617Z,5.17
2017-10-26T14:57:35.198Z,8.53
2017-10-26T15:00:01.778Z,7.07
2017-10-26T15:02:28.353Z,6.93
2017-10-26T15:04:54.932Z,10.13
2017-10-26T15:07:21.540Z,6.70
2017-10-26T15:09:48.123Z,8.50
2017-10-26T15:12:14.689Z,6.33
2017-10-26T15:14:41.272Z,8.90
2017-10-26T15:17:07.845Z,5.63
2017-10-26T15:19:34.412Z,9.50
2017-10-26T15:22:00.988Z,8.40
2017-10-26T15:24:27.564Z,8.10
2017-10-26T15:26:54.166Z,9.37
2017-10-26T15:29:20.748Z,6.07
2017-10-26T15:31:47.308Z,7.33
2017-10-26T15:34:13.890Z,8.97
2017-10-26T15:36:40.464Z,11.57
2017-10-26T15:39:07.071Z,12.90
2017-10-26T15:41:33.636Z,7.17
2017-10-26T15:44:00.218Z,10.10
2017-10-26T15:46:26.789Z,7.60
2017-10-26T15:48:53.365Z,6.00
2017-10-26T15:51:19.952Z,10.77
2017-10-26T15:53:46.523Z,6.00
2017-10-26T15:56:13.092Z,13.40
2017-10-26T15:58:39.669Z,8.40
2017-10-26T16:01:06.350Z,6.80
2017-10-26T16:03:32.903Z,9.80
2017-10-26T16:05:59.555Z,8.73
2017-10-26T16:08:26.118Z,14.03
2017-10-26T16:10:52.737Z,5.67
2017-10-26T16:13:19.304Z,6.57
2017-10-26T16:15:45.885Z,6.23
2017-10-26T16:18:12.461Z,7.93
2017-10-26T16:20:39.148Z,6.90
2017-10-26T16:23:05.793Z,9.10
2017-10-26T16:25:32.360Z,11.73
2017-10-26T16:27:58.940Z,9.23
2017-10-26T16:30:25.508Z,9.17
2017-10-26T16:32:52.190Z,10.40
2017-10-26T16:35:18.840Z,12.93
2017-10-26T16:37:45.392Z,10.00
2017-10-26T16:40:11.973Z,9.97
2017-10-26T16:42:38.564Z,9.50
2017-10-26T16:45:05.140Z,14.70
2017-10-26T16:47:31.725Z,12.30
2017-10-26T16:49:58.288Z,13.27
2017-10-26T16:52:24.900Z,15.40
2017-10-26T16:54:51.449Z,12.57
2017-10-26T16:57:18.051Z,14.47
2017-10-26T16:59:44.640Z,16.93
2017-10-26T17:02:11.277Z,18.40
2017-10-26T17:04:38.379Z,16.80
2017-10-26T17:07:04.958Z,19.00
2017-10-26T17:09:31.541Z,18.30
2017-10-26T17:11:58.124Z,14.60
2017-10-26T17:14:24.788Z,15.33
2017-10-26T17:16:51.364Z,16.57
2017-10-26T17:19:17.951Z,19.17
2017-10-26T17:21:44.527Z,15.00
2017-10-26T17:24:20.988Z,18.83
2017-10-26T17:26:47.564Z,17.60
2017-10-26T17:29:14.183Z,19.73
2017-10-26T17:31:40.761Z,22.53
2017-10-26T17:34:07.344Z,20.10
2017-10-26T17:36:33.933Z,17.73
2017-10-26T17:39:00.510Z,21.63
2017-10-26T17:41:27.119Z,22.73
2017-10-26T17:43:53.721Z,19.17
2017-10-26T17:46:20.305Z,16.47
2017-10-26T17:48:46.884Z,15.63
2017-10-26T17:51:13.482Z,14.77
2017-10-26T17:53:40.072Z,16.87
2017-10-26T17:56:06.661Z,17.23
2017-10-26T17:58:33.232Z,18.83
2017-10-26T18:00:59.820Z,18.77
2017-10-26T18:03:26.416Z,19.73
2017-10-26T18:05:53.008Z,20.60
2017-10-26T18:08:19.593Z,22.67
2017-10-26T18:10:49.841Z,15.20
2017-10-26T18:13:16.434Z,17.90
2017-10-26T18:15:43.009Z,18.13
2017-10-26T18:18:09.588Z,16.10
2017-10-26T18:20:36.181Z,14.83
2017-10-26T18:23:02.755Z,13.20
2017-10-26T18:25:29.366Z,12.53
2017-10-26T18:28:02.432Z,15.73
2017-10-26T18:30:29.077Z,13.93
2017-10-26T18:32:55.697Z,16.43
2017-10-26T18:35:22.277Z,17.23
2017-10-26T18:37:49.126Z,16.58
2017-10-26T18:40:15.777Z,14.10
2017-10-26T18:42:42.372Z,16.20
2017-10-26T18:45:09.034Z,12.10
2017-10-26T18:47:35.613Z,14.90
2017-10-26T18:50:02.305Z,16.00
2017-10-26T18:52:28.896Z,14.30
2017-10-26T18:54:55.474Z,14.33
2017-10-26T18:57:22.057Z,16.60
2017-10-26T18:59:48.676Z,11.80
2017-10-26T19:02:15.244Z,13.37
2017-10-26T19:04:41.829Z,14.10
2017-10-26T19:07:08.411Z,12.83
2017-10-26T19:09:34.992Z,13.53
2017-10-26T19:12:01.572Z,17.27
2017-10-26T19:14:28.150Z,15.00
2017-10-26T19:16:54.766Z,17.80
2017-10-26T19:19:21.355Z,16.47
2017-10-26T19:21:53.794Z,18.93
2017-10-26T19:24:20.461Z,16.90
2017-10-26T19:26:47.049Z,13.93
2017-10-26T19:29:13.632Z,18.07
2017-10-26T19:31:40.307Z,18.37
2017-10-26T19:34:06.892Z,20.03
2017-10-26T19:36:33.503Z,23.90
2017-10-26T19:39:00.128Z,16.77
2017-10-26T19:41:26.712Z,20.67
2017-10-26T19:43:53.288Z,17.00
2017-10-26T19:46:19.873Z,16.00
2017-10-26T19:48:46.452Z,17.67
2017-10-26T19:51:13.038Z,18.37
2017-10-26T19:53:39.630Z,17.93
2017-10-26T19:56:06.220Z,17.60
2017-10-26T19:58:32.792Z,18.47
2017-10-26T20:00:59.381Z,24.43
2017-10-26T20:03:25.955Z,24.03
2017-10-26T20:05:52.532Z,24.57
2017-10-26T20:08:19.120Z,24.13
2017-10-26T20:10:45.717Z,28.40
2017-10-26T20:13:19.637Z,27.80
2017-10-26T20:15:46.208Z,28.33
2017-10-26T20:18:12.802Z,28.10
2017-10-26T20:20:39.380Z,27.77
2017-10-26T20:23:05.984Z,25.53
2017-10-26T20:25:32.568Z,28.50
2017-10-26T20:27:59.145Z,30.97
2017-10-26T20:30:25.736Z,30.70
2017-10-26T20:32:52.360Z,29.27
2017-10-26T20:35:19.057Z,29.27
2017-10-26T20:37:45.625Z,29.17
2017-10-26T20:40:12.493Z,28.23
2017-10-26T20:42:39.117Z,31.87
2017-10-26T20:45:05.676Z,32.77
2017-10-26T20:47:32.315Z,27.83
2017-10-26T20:50:04.623Z,33.00
2017-10-26T20:52:37.063Z,30.00
2017-10-26T20:55:09.505Z,31.33
2017-10-26T20:57:41.845Z,32.77
2017-10-26T21:00:14.068Z,30.80
2017-10-26T21:02:46.324Z,39.10
2017-10-26T21:05:18.537Z,28.97
2017-10-26T21:07:50.781Z,35.23
2017-10-26T21:10:23.245Z,29.53
2017-10-26T21:12:55.521Z,31.10
2017-10-26T21:15:22.095Z,37.77
2017-10-26T21:17:48.673Z,29.50
2017-10-26T21:20:15.277Z,33.80
2017-10-26T21:22:41.893Z,29.47
2017-10-26T21:25:08.564Z,33.13
2017-10-26T21:27:35.145Z,31.00
2017-10-26T21:30:01.722Z,32.60
2017-10-26T21:32:28.300Z,31.23
2017-10-26T21:34:54.881Z,30.70
2017-10-26T21:37:21.464Z,32.17
2017-10-26T21:39:48.059Z,33.23
2017-10-26T21:42:14.680Z,34.33
2017-10-26T21:44:41.267Z,35.27
2017-10-26T21:47:07.862Z,35.57
2017-10-26T21:49:34.492Z,35.17
2017-10-26T21:52:01.072Z,38.67
2017-10-26T21:54:27.663Z,38.23
2017-10-26T21:56:54.353Z,41.70
2017-10-26T21:59:20.972Z,43.87
2017-10-26T22:01:47.545Z,43.07
2017-10-26T22:04:14.129Z,46.83
2017-10-26T22:06:40.712Z,49.87
2017-10-26T22:09:07.319Z,45.50
2017-10-26T22:11:33.894Z,54.70
2017-10-26T22:14:00.501Z,57.50
2017-10-26T22:16:27.100Z,51.80
2017-10-26T22:18:53.688Z,60.80
2017-10-26T22:21:20.268Z,60.40
2017-10-26T22:23:46.853Z,60.37
2017-10-26T22:26:13.432Z,63.03
2017-10-26T22:28:40.022Z,62.80
2017-10-26T22:31:06.596Z,70.47
2017-10-26T22:33:33.245Z,65.03
2017-10-26T22:35:59.819Z,69.57
2017-10-26T22:38:26.396Z,73.93
2017-10-26T22:40:52.984Z,68.60
2017-10-26T22:43:19.564Z,70.93
2017-10-26T22:45:46.149Z,79.90
2017-10-26T22:48:12.728Z,39.53
2017-10-26T22:50:39.332Z,27.43
2017-10-26T22:53:05.958Z,33.90
2017-10-26T22:55:32.517Z,30.97
2017-10-26T22:57:59.108Z,31.93
2017-10-26T23:00:25.693Z,34.57
2017-10-26T23:02:52.274Z,31.23
2017-10-26T23:05:18.852Z,30.30
2017-10-26T23:07:45.912Z,37.87
2017-10-26T23:10:12.493Z,34.67
2017-10-26T23:12:39.072Z,39.50
2017-10-26T23:15:05.666Z,38.50
2017-10-26T23:17:32.242Z,45.70
2017-10-26T23:19:58.816Z,45.50
2017-10-26T23:22:25.413Z,38.40
2017-10-26T23:24:51.997Z,46.57
2017-10-26T23:27:18.575Z,41.63
2017-10-26T23:29:45.166Z,44.70
2017-10-26T23:32:11.779Z,43.40
2017-10-26T23:34:38.352Z,40.50
2017-10-26T23:37:04.932Z,42.73
2017-10-26T23:39:31.520Z,40.73
2017-10-26T23:41:58.102Z,39.70
2017-10-26T23:44:24.680Z,40.37
2017-10-26T23:46:51.268Z,42.57
2017-10-26T23:49:17.868Z,42.70
2017-10-26T23:51:44.449Z,39.50
2017-10-26T23:54:11.032Z,41.13
2017-10-26T23:56:37.616Z,43.07
2017-10-26T23:59:04.205Z,46.57
